createdAt,value
2022-10-19T00:01:14.362Z,9.20
2022-10-19T00:03:43.165Z,9.32
2022-10-19T00:06:15.269Z,9.35
2022-10-19T00:08:43.647Z,9.31
2022-10-19T00:11:12.457Z,9.35
2022-10-19T00:13:40.999Z,9.10
2022-10-19T00:16:11.738Z,9.08
2022-10-19T00:18:40.365Z,9.07
2022-10-19T00:21:10.101Z,9.17
2022-10-19T00:23:39.686Z,9.16
2022-10-19T00:26:08.676Z,9.23
2022-10-19T00:28:36.906Z,9.13
2022-10-19T00:31:05.793Z,8.94
2022-10-19T00:33:33.913Z,9.17
2022-10-19T00:36:02.518Z,9.18
2022-10-19T00:38:30.632Z,9.23
2022-10-19T00:41:00.173Z,9.32
2022-10-19T00:43:31.388Z,9.21
2022-10-19T00:45:59.658Z,9.21
2022-10-19T00:48:31.536Z,9.31
2022-10-19T00:51:01.345Z,9.27
2022-10-19T00:53:31.607Z,9.28
2022-10-19T00:56:06.861Z,9.31
2022-10-19T00:58:35.270Z,9.16
2022-10-19T01:01:17.060Z,9.16
2022-10-19T01:03:46.199Z,9.00
2022-10-19T01:06:15.852Z,9.07
2022-10-19T01:08:43.960Z,9.24
2022-10-19T01:11:25.065Z,9.38
2022-10-19T01:14:05.324Z,9.35
2022-10-19T01:16:43.766Z,9.35
2022-10-19T01:19:37.010Z,9.32
2022-10-19T01:22:17.896Z,9.34
2022-10-19T01:25:06.279Z,9.30
2022-10-19T01:27:56.532Z,9.38
2022-10-19T01:30:36.021Z,9.47
2022-10-19T01:33:12.515Z,9.26
2022-10-19T01:35:48.338Z,9.17
2022-10-19T01:38:25.195Z,9.10
2022-10-19T01:40:59.571Z,9.14
2022-10-19T01:43:38.527Z,9.18
2022-10-19T01:46:13.136Z,9.11
2022-10-19T01:48:46.039Z,9.21
2022-10-19T01:51:18.887Z,9.35
2022-10-19T01:53:54.096Z,9.38
2022-10-19T01:56:27.944Z,9.30
2022-10-19T01:58:59.318Z,9.14
2022-10-19T02:01:34.289Z,8.94
2022-10-19T02:04:03.396Z,8.70
2022-10-19T02:06:31.621Z,8.80
2022-10-19T02:09:00.178Z,8.80
2022-10-19T02:11:28.867Z,8.82
2022-10-19T02:14:02.473Z,8.84
2022-10-19T02:16:36.023Z,9.07
2022-10-19T02:19:08.573Z,9.28
2022-10-19T02:21:36.930Z,9.47
2022-10-19T02:24:05.257Z,9.49
2022-10-19T02:26:33.795Z,9.52
2022-10-19T02:29:01.942Z,9.58
2022-10-19T02:31:30.235Z,9.39
2022-10-19T02:34:00.061Z,9.49
2022-10-19T02:36:28.231Z,9.52
2022-10-19T02:38:56.313Z,9.45
2022-10-19T02:41:28.383Z,9.41
2022-10-19T02:44:02.192Z,9.41
2022-10-19T02:46:36.095Z,9.41
2022-10-19T02:49:07.809Z,9.18
2022-10-19T02:51:37.500Z,9.32
2022-10-19T02:54:07.731Z,9.42
2022-10-19T02:56:36.629Z,9.62
2022-10-19T02:59:04.877Z,9.71
2022-10-19T03:01:33.054Z,10.06
2022-10-19T03:04:01.035Z,10.13
2022-10-19T03:06:30.676Z,10.57
2022-10-19T03:08:58.627Z,10.50
2022-10-19T03:11:27.275Z,10.50
2022-10-19T03:13:55.246Z,10.36
2022-10-19T03:16:23.235Z,10.41
2022-10-19T03:18:51.943Z,10.47
2022-10-19T03:21:20.544Z,10.44
2022-10-19T03:23:50.159Z,10.48
2022-10-19T03:26:19.002Z,10.45
2022-10-19T03:28:47.113Z,10.36
2022-10-19T03:31:15.095Z,10.34
2022-10-19T03:33:43.103Z,10.34
2022-10-19T03:36:15.200Z,10.33
2022-10-19T03:38:43.192Z,10.33
2022-10-19T03:41:13.383Z,10.33
2022-10-19T03:43:42.244Z,10.23
2022-10-19T03:46:10.709Z,10.24
2022-10-19T03:48:38.955Z,10.20
2022-10-19T03:51:08.824Z,10.04
2022-10-19T03:53:37.304Z,9.90
2022-10-19T03:56:07.603Z,10.04
2022-10-19T03:58:38.083Z,10.02
2022-10-19T04:01:09.500Z,9.96
2022-10-19T04:03:37.784Z,10.27
2022-10-19T04:06:07.930Z,10.93
2022-10-19T04:08:38.035Z,11.31
2022-10-19T04:11:08.497Z,11.51
2022-10-19T04:13:38.145Z,11.70
2022-10-19T04:16:06.835Z,11.68
2022-10-19T04:18:35.327Z,11.74
2022-10-19T04:21:05.166Z,11.70
2022-10-19T04:23:34.793Z,11.71
2022-10-19T04:26:03.368Z,11.70
2022-10-19T04:28:31.957Z,11.67
2022-10-19T04:31:03.299Z,11.72
2022-10-19T04:33:31.588Z,11.82
2022-10-19T04:36:00.311Z,11.81
2022-10-19T04:38:28.318Z,11.77
2022-10-19T04:40:56.428Z,11.65
2022-10-19T04:43:24.706Z,11.61
2022-10-19T04:45:52.702Z,11.55
2022-10-19T04:48:22.414Z,11.53
2022-10-19T04:50:56.398Z,11.41
2022-10-19T04:55:52.823Z,11.55
2022-10-19T04:58:20.956Z,11.41
2022-10-19T05:00:49.182Z,11.26
2022-10-19T05:03:17.569Z,11.06
2022-10-19T05:05:47.207Z,10.99
2022-10-19T05:08:15.153Z,10.86
2022-10-19T05:10:47.661Z,10.62
2022-10-19T05:13:16.008Z,10.50
2022-10-19T05:15:44.011Z,10.50
2022-10-19T05:18:11.944Z,10.47
2022-10-19T05:20:39.884Z,10.17
2022-10-19T05:23:09.527Z,10.34
2022-10-19T05:25:37.487Z,10.38
2022-10-19T05:28:05.501Z,10.37
2022-10-19T05:30:33.613Z,10.37
2022-10-19T05:33:01.597Z,10.25
2022-10-19T05:35:29.612Z,10.23
2022-10-19T05:37:57.621Z,10.31
2022-10-19T05:40:27.548Z,10.41
2022-10-19T05:42:55.795Z,10.42
2022-10-19T05:45:25.827Z,10.42
2022-10-19T05:47:53.811Z,10.40
2022-10-19T05:50:21.907Z,10.45
2022-10-19T05:52:50.110Z,10.48
2022-10-19T05:55:18.310Z,10.50
2022-10-19T05:57:47.681Z,10.52
2022-10-19T06:00:16.314Z,10.54
2022-10-19T06:02:44.360Z,10.67
2022-10-19T06:05:12.353Z,10.71
2022-10-19T06:07:40.598Z,10.75
2022-10-19T06:10:10.295Z,10.83
2022-10-19T06:12:39.046Z,10.96
2022-10-19T06:15:09.510Z,10.88
2022-10-19T06:17:37.514Z,10.91
2022-10-19T06:20:06.914Z,11.07
2022-10-19T06:22:34.890Z,11.22
2022-10-19T06:25:02.923Z,11.19
2022-10-19T06:27:33.592Z,11.23
2022-10-19T06:30:01.911Z,11.37
2022-10-19T06:32:32.416Z,11.54
2022-10-19T06:35:00.396Z,11.57
2022-10-19T06:37:28.395Z,11.65
2022-10-19T06:39:56.444Z,11.57
2022-10-19T06:42:24.521Z,11.61
2022-10-19T06:44:52.530Z,11.58
2022-10-19T06:47:20.495Z,11.57
2022-10-19T06:49:49.871Z,11.85
2022-10-19T06:52:17.890Z,12.01
2022-10-19T06:54:45.889Z,12.10
2022-10-19T06:57:13.871Z,12.20
2022-10-19T06:59:41.817Z,12.48
2022-10-19T07:02:11.816Z,12.68
2022-10-19T07:04:40.128Z,12.83
2022-10-19T07:07:09.746Z,12.95
2022-10-19T07:09:39.941Z,13.12
2022-10-19T07:12:10.573Z,13.33
2022-10-19T07:14:39.978Z,13.40
2022-10-19T07:17:08.323Z,13.57
2022-10-19T07:19:36.403Z,13.59
2022-10-19T07:22:04.831Z,13.59
2022-10-19T07:24:34.153Z,13.85
2022-10-19T07:27:02.501Z,13.94
2022-10-19T07:29:30.496Z,14.04
2022-10-19T07:32:00.552Z,14.08
2022-10-19T07:34:29.226Z,14.22
2022-10-19T07:36:57.265Z,14.22
2022-10-19T07:39:25.422Z,14.25
2022-10-19T07:41:54.839Z,14.32
2022-10-19T07:44:22.834Z,14.37
2022-10-19T07:46:51.819Z,14.43
2022-10-19T07:49:20.786Z,14.67
2022-10-19T07:51:53.862Z,14.59
2022-10-19T07:54:22.668Z,14.76
2022-10-19T07:56:50.580Z,14.88
2022-10-19T07:59:20.880Z,14.98
2022-10-19T08:01:50.136Z,15.08
2022-10-19T08:07:06.619Z,15.11
2022-10-19T08:09:53.936Z,15.15
2022-10-19T08:12:22.453Z,15.32
2022-10-19T08:14:52.429Z,15.35
2022-10-19T08:17:20.609Z,15.53
2022-10-19T08:19:48.557Z,15.82
2022-10-19T08:22:16.840Z,15.80
2022-10-19T08:24:44.849Z,15.93
2022-10-19T08:27:12.922Z,16.13
2022-10-19T08:29:41.050Z,16.21
2022-10-19T08:32:10.457Z,16.06
2022-10-19T08:34:42.668Z,16.20
2022-10-19T08:37:20.185Z,16.47
2022-10-19T08:39:59.096Z,16.56
2022-10-19T08:42:34.006Z,16.61
2022-10-19T08:45:22.189Z,16.80
2022-10-19T08:48:00.482Z,16.68
2022-10-19T08:50:35.778Z,16.61
2022-10-19T08:53:06.260Z,16.73
2022-10-19T08:55:44.507Z,17.00
2022-10-19T08:58:32.531Z,17.00
2022-10-19T09:01:05.697Z,16.96
2022-10-19T09:03:57.724Z,16.97
2022-10-19T09:06:30.680Z,17.00
2022-10-19T09:08:59.931Z,17.11
2022-10-19T09:11:33.873Z,17.09
2022-10-19T09:14:06.844Z,17.21
2022-10-19T09:16:36.025Z,17.37
2022-10-19T09:19:14.311Z,17.49
2022-10-19T09:21:48.325Z,17.71
2022-10-19T09:24:29.006Z,17.61
2022-10-19T09:26:59.208Z,17.65
2022-10-19T09:29:35.632Z,17.69
2022-10-19T09:32:12.364Z,17.82
2022-10-19T09:34:45.510Z,18.16
2022-10-19T09:37:21.167Z,17.96
2022-10-19T09:39:54.173Z,18.31
2022-10-19T09:42:29.167Z,18.26
2022-10-19T09:44:58.296Z,18.07
2022-10-19T09:47:37.421Z,18.33
2022-10-19T09:50:25.882Z,18.51
2022-10-19T09:52:56.471Z,18.72
2022-10-19T09:55:31.659Z,18.84
2022-10-19T09:58:06.192Z,18.62
2022-10-19T10:00:37.872Z,18.72
2022-10-19T10:03:08.426Z,18.96
2022-10-19T10:05:39.959Z,19.19
2022-10-19T10:08:15.747Z,19.20
2022-10-19T10:10:47.219Z,19.19
2022-10-19T10:13:19.043Z,19.12
2022-10-19T10:15:52.248Z,19.12
2022-10-19T10:18:20.549Z,18.94
2022-10-19T10:21:01.834Z,18.82
2022-10-19T10:23:34.273Z,18.64
2022-10-19T10:26:06.839Z,18.76
2022-10-19T10:28:34.944Z,18.73
2022-10-19T10:31:06.988Z,18.96
2022-10-19T10:33:45.053Z,18.98
2022-10-19T10:36:15.613Z,19.05
2022-10-19T10:38:47.318Z,19.37
2022-10-19T10:41:17.759Z,19.38
2022-10-19T10:43:58.462Z,19.46
2022-10-19T10:46:34.309Z,19.43
2022-10-19T10:49:05.042Z,19.54
2022-10-19T10:51:40.379Z,19.71
2022-10-19T10:54:17.082Z,19.15
2022-10-19T10:56:55.814Z,19.44
2022-10-19T10:59:27.691Z,19.05
2022-10-19T11:02:03.510Z,18.50
2022-10-19T11:04:37.639Z,18.18
2022-10-19T11:07:24.078Z,18.22
2022-10-19T11:09:55.371Z,18.60
2022-10-19T11:12:36.119Z,18.67
2022-10-19T11:15:12.896Z,18.82
2022-10-19T11:17:57.112Z,18.95
2022-10-19T11:20:29.458Z,19.16
2022-10-19T11:23:07.547Z,19.26
2022-10-19T11:25:49.136Z,18.73
2022-10-19T11:28:33.437Z,18.99
2022-10-19T11:31:08.010Z,18.82
2022-10-19T11:33:55.719Z,18.76
2022-10-19T11:36:40.740Z,18.87
2022-10-19T11:39:27.816Z,18.84
2022-10-19T11:42:02.730Z,18.87
2022-10-19T11:44:42.966Z,18.98
2022-10-19T11:47:29.232Z,18.92
2022-10-19T11:50:05.639Z,18.43
2022-10-19T11:52:41.181Z,18.00
2022-10-19T11:55:24.102Z,18.14
2022-10-19T11:57:56.961Z,18.47
2022-10-19T12:00:38.757Z,18.84
2022-10-19T12:03:43.168Z,18.50
2022-10-19T12:06:19.854Z,18.60
2022-10-19T12:09:12.008Z,18.52
2022-10-19T12:11:52.520Z,19.09
2022-10-19T12:14:28.901Z,19.53
2022-10-19T12:17:01.176Z,18.84
2022-10-19T12:19:34.277Z,19.00
2022-10-19T12:22:05.657Z,18.89
2022-10-19T12:24:35.632Z,18.84
2022-10-19T12:27:06.579Z,19.55
2022-10-19T12:29:38.099Z,19.47
2022-10-19T12:32:08.442Z,19.34
2022-10-19T12:34:46.077Z,18.92
2022-10-19T12:37:19.827Z,19.13
2022-10-19T12:39:53.273Z,19.51
2022-10-19T12:42:29.504Z,19.26
2022-10-19T12:45:11.981Z,19.33
2022-10-19T12:47:40.050Z,19.47
2022-10-19T12:50:09.136Z,19.43
2022-10-19T12:52:44.420Z,19.58
2022-10-19T12:55:28.489Z,19.34
2022-10-19T12:58:07.820Z,19.15
2022-10-19T13:00:38.799Z,18.67
2022-10-19T13:03:15.440Z,18.64
2022-10-19T13:05:43.982Z,18.61
2022-10-19T13:08:28.644Z,18.44
2022-10-19T13:11:08.401Z,18.98
2022-10-19T13:14:21.889Z,18.65
2022-10-19T13:17:09.689Z,18.52
2022-10-19T13:19:37.985Z,18.67
2022-10-19T13:22:39.771Z,18.27
2022-10-19T13:25:23.640Z,18.10
2022-10-19T13:27:52.720Z,18.79
2022-10-19T13:31:03.409Z,18.79
2022-10-19T13:33:50.460Z,18.48
2022-10-19T13:36:19.323Z,18.20
2022-10-19T13:39:03.056Z,18.23
2022-10-19T13:41:51.262Z,18.03
2022-10-19T13:44:25.032Z,18.37
2022-10-19T13:47:21.146Z,18.31
2022-10-19T13:50:02.603Z,17.81
2022-10-19T13:53:04.540Z,17.71
2022-10-19T13:55:50.382Z,17.61
2022-10-19T13:58:39.855Z,17.65
2022-10-19T14:01:20.692Z,17.86
2022-10-19T14:04:05.259Z,17.78
2022-10-19T14:06:41.321Z,17.35
2022-10-19T14:09:48.347Z,17.32
2022-10-19T14:12:18.917Z,17.23
2022-10-19T14:14:46.949Z,17.16
2022-10-19T14:17:21.163Z,17.35
2022-10-19T14:19:52.411Z,17.23
2022-10-19T14:22:31.212Z,17.11
2022-10-19T14:25:05.228Z,17.00
2022-10-19T14:27:34.380Z,16.97
2022-10-19T14:30:03.606Z,17.02
2022-10-19T14:32:35.809Z,17.17
2022-10-19T14:35:17.302Z,17.17
2022-10-19T14:37:47.377Z,17.07
2022-10-19T14:40:27.989Z,16.87
2022-10-19T14:42:58.208Z,16.83
2022-10-19T14:45:28.804Z,16.59
2022-10-19T14:47:59.857Z,16.56
2022-10-19T14:50:48.741Z,16.42
2022-10-19T14:53:38.000Z,16.41
2022-10-19T14:56:11.120Z,16.40
2022-10-19T14:58:42.807Z,16.25
2022-10-19T15:01:13.459Z,16.18
2022-10-19T15:03:44.119Z,16.17
2022-10-19T15:06:18.748Z,16.07
2022-10-19T15:08:51.551Z,16.04
2022-10-19T15:11:27.912Z,15.97
2022-10-19T15:14:03.857Z,15.93
2022-10-19T15:16:35.484Z,15.86
2022-10-19T15:19:05.571Z,15.79
2022-10-19T15:21:34.112Z,15.65
2022-10-19T15:24:22.764Z,15.65
2022-10-19T15:27:08.761Z,15.56
2022-10-19T15:29:37.860Z,15.48
2022-10-19T15:32:17.052Z,15.42
2022-10-19T15:34:46.661Z,15.31
2022-10-19T15:37:22.297Z,15.25
2022-10-19T15:39:52.251Z,15.21
2022-10-19T15:42:30.606Z,15.14
2022-10-19T15:44:58.846Z,15.07
2022-10-19T15:47:27.138Z,14.98
2022-10-19T15:49:57.970Z,14.98
2022-10-19T15:52:27.152Z,14.93
2022-10-19T15:54:58.718Z,14.79
2022-10-19T15:57:35.160Z,14.67
2022-10-19T16:00:12.723Z,14.63
2022-10-19T16:02:40.940Z,14.63
2022-10-19T16:05:10.230Z,14.47
2022-10-19T16:07:40.648Z,14.43
2022-10-19T16:10:16.550Z,14.30
2022-10-19T16:12:44.775Z,14.22
2022-10-19T16:15:13.715Z,14.25
2022-10-19T16:17:41.848Z,14.25
2022-10-19T16:20:12.180Z,14.25
2022-10-19T16:22:40.254Z,14.14
2022-10-19T16:25:10.331Z,14.08
2022-10-19T16:27:38.826Z,14.01
2022-10-19T16:30:08.337Z,13.97
2022-10-19T16:32:36.829Z,14.02
2022-10-19T16:35:05.457Z,13.94
2022-10-19T16:37:33.945Z,13.85
2022-10-19T16:40:02.417Z,13.74
2022-10-19T16:42:33.597Z,13.71
2022-10-19T16:45:02.121Z,13.60
2022-10-19T16:47:30.197Z,13.53
2022-10-19T16:50:00.711Z,13.42
2022-10-19T16:52:31.536Z,13.40
2022-10-19T16:54:59.875Z,13.36
2022-10-19T16:57:28.007Z,13.27
2022-10-19T16:59:57.619Z,13.27
2022-10-19T17:02:25.689Z,13.29
2022-10-19T17:04:53.905Z,13.36
2022-10-19T17:07:22.076Z,13.36
2022-10-19T17:09:54.699Z,13.35
2022-10-19T17:12:23.809Z,13.32
2022-10-19T17:15:02.971Z,13.23
2022-10-19T17:17:46.355Z,13.19
2022-10-19T17:20:15.798Z,13.09
2022-10-19T17:22:44.875Z,13.05
2022-10-19T17:25:17.266Z,13.01
2022-10-19T17:27:45.650Z,12.96
2022-10-19T17:30:14.160Z,12.87
2022-10-19T17:32:42.821Z,12.83
2022-10-19T17:35:12.954Z,12.75
2022-10-19T17:37:41.420Z,12.65
2022-10-19T17:40:10.844Z,12.71
2022-10-19T17:42:40.129Z,12.65
2022-10-19T17:45:09.412Z,12.69
2022-10-19T17:47:37.738Z,12.50
2022-10-19T17:50:07.224Z,12.47
2022-10-19T17:52:37.729Z,12.39
2022-10-19T17:55:12.328Z,12.37
2022-10-19T17:57:41.167Z,12.32
2022-10-19T18:00:10.301Z,12.23
2022-10-19T18:02:42.008Z,12.19
2022-10-19T18:05:11.273Z,12.09
2022-10-19T18:07:41.234Z,12.09
2022-10-19T18:10:11.330Z,12.02
2022-10-19T18:12:41.199Z,11.92
2022-10-19T18:15:11.443Z,11.99
2022-10-19T18:17:41.041Z,11.98
2022-10-19T18:20:12.235Z,11.93
2022-10-19T18:22:43.733Z,11.88
2022-10-19T18:25:13.342Z,11.82
2022-10-19T18:27:43.102Z,11.79
2022-10-19T18:30:13.297Z,11.75
2022-10-19T18:32:42.243Z,11.61
2022-10-19T18:35:10.880Z,11.55
2022-10-19T18:37:39.167Z,11.48
2022-10-19T18:40:10.594Z,11.38
2022-10-19T18:42:38.737Z,11.38
2022-10-19T18:45:08.000Z,11.27
2022-10-19T18:47:36.478Z,11.23
2022-10-19T18:50:05.588Z,11.20
2022-10-19T18:52:38.080Z,11.19
2022-10-19T18:55:09.072Z,11.09
2022-10-19T18:57:37.566Z,11.06
2022-10-19T19:00:07.239Z,10.91
2022-10-19T19:02:46.381Z,10.91
2022-10-19T19:05:15.695Z,10.96
2022-10-19T19:07:43.974Z,10.91
2022-10-19T19:10:14.519Z,11.05
2022-10-19T19:12:42.977Z,11.07
2022-10-19T19:15:12.295Z,10.86
2022-10-19T19:17:40.913Z,10.75
2022-10-19T19:20:10.147Z,10.80
2022-10-19T19:22:38.571Z,10.64
2022-10-19T19:25:07.717Z,10.54
2022-10-19T19:30:08.144Z,10.48
2022-10-19T19:32:36.754Z,10.41
2022-10-19T19:35:05.741Z,10.40
2022-10-19T19:37:34.370Z,10.30
2022-10-19T19:40:02.856Z,10.20
2022-10-19T19:42:30.962Z,10.24
2022-10-19T19:45:00.402Z,10.21
2022-10-19T19:47:29.664Z,10.17
2022-10-19T19:49:58.066Z,10.14
2022-10-19T19:52:26.344Z,10.16
2022-10-19T19:54:54.561Z,10.25
2022-10-19T19:57:23.074Z,10.07
2022-10-19T19:59:51.205Z,10.09
2022-10-19T20:02:21.229Z,9.99
2022-10-19T20:04:51.728Z,9.97
2022-10-19T20:07:19.853Z,10.06
2022-10-19T20:09:48.049Z,10.07
2022-10-19T20:12:16.353Z,10.03
2022-10-19T20:14:44.490Z,9.71
2022-10-19T20:17:12.515Z,9.28
2022-10-19T20:19:42.389Z,9.51
2022-10-19T20:22:10.619Z,9.52
2022-10-19T20:24:38.871Z,9.49
2022-10-19T20:27:07.157Z,9.54
2022-10-19T20:29:35.181Z,9.54
2022-10-19T20:32:04.807Z,9.18
2022-10-19T20:34:33.061Z,9.08
2022-10-19T20:37:03.019Z,9.01
2022-10-19T20:39:31.392Z,8.89
2022-10-19T20:41:59.547Z,8.72
2022-10-19T20:44:27.797Z,8.27
2022-10-19T20:46:55.796Z,7.65
2022-10-19T20:49:24.074Z,7.62
2022-10-19T20:51:55.053Z,7.84
2022-10-19T20:54:24.501Z,7.52
2022-10-19T20:56:52.686Z,7.61
2022-10-19T20:59:22.964Z,7.59
2022-10-19T21:01:52.138Z,7.91
2022-10-19T21:04:20.357Z,8.11
2022-10-19T21:06:50.048Z,8.20
2022-10-19T21:09:21.482Z,8.24
2022-10-19T21:11:52.283Z,8.38
2022-10-19T21:14:26.989Z,8.27
2022-10-19T21:16:57.968Z,8.18
2022-10-19T21:19:27.917Z,7.94
2022-10-19T21:21:58.533Z,7.82
2022-10-19T21:24:28.704Z,7.77
2022-10-19T21:26:58.227Z,7.67
2022-10-19T21:29:27.308Z,7.45
2022-10-19T21:31:55.565Z,7.15
2022-10-19T21:34:25.106Z,7.12
2022-10-19T21:36:53.777Z,7.12
2022-10-19T21:39:23.387Z,7.12
2022-10-19T21:41:52.071Z,7.25
2022-10-19T21:44:23.297Z,7.21
2022-10-19T21:46:51.952Z,7.25
2022-10-19T21:49:20.190Z,7.22
2022-10-19T21:51:50.779Z,7.21
2022-10-19T21:54:20.516Z,7.25
2022-10-19T21:56:49.669Z,7.21
2022-10-19T21:59:18.451Z,7.14
2022-10-19T22:01:48.580Z,7.04
2022-10-19T22:04:18.143Z,6.84
2022-10-19T22:06:46.407Z,6.68
2022-10-19T22:09:16.866Z,6.72
2022-10-19T22:11:45.361Z,6.80
2022-10-19T22:14:15.297Z,6.77
2022-10-19T22:16:43.638Z,6.83
2022-10-19T22:19:13.693Z,6.75
2022-10-19T22:21:41.994Z,6.61
2022-10-19T22:24:12.876Z,6.62
2022-10-19T22:26:42.693Z,6.53
2022-10-19T22:29:11.162Z,6.49
2022-10-19T22:31:39.296Z,6.65
2022-10-19T22:34:11.765Z,6.69
2022-10-19T22:36:41.222Z,6.86
2022-10-19T22:39:09.655Z,6.96
2022-10-19T22:41:37.754Z,7.03
2022-10-19T22:44:06.673Z,7.11
2022-10-19T22:46:35.101Z,7.28
2022-10-19T22:49:03.228Z,7.52
2022-10-19T22:51:31.366Z,7.77
2022-10-19T22:54:00.923Z,7.94
2022-10-19T22:56:29.274Z,8.04
2022-10-19T22:58:59.856Z,8.00
2022-10-19T23:01:28.821Z,8.01
2022-10-19T23:03:57.051Z,7.98
2022-10-19T23:06:25.843Z,7.97
2022-10-19T23:08:54.648Z,7.96
2022-10-19T23:11:24.473Z,7.97
2022-10-19T23:13:52.705Z,7.94
2022-10-19T23:16:20.884Z,7.96
2022-10-19T23:18:49.147Z,7.98
2022-10-19T23:21:17.413Z,7.94
2022-10-19T23:23:45.842Z,7.96
2022-10-19T23:26:15.918Z,7.89
2022-10-19T23:28:48.166Z,7.84
2022-10-19T23:31:18.764Z,7.91
2022-10-19T23:33:47.954Z,7.96
2022-10-19T23:36:20.024Z,7.97
2022-10-19T23:38:49.874Z,7.89
2022-10-19T23:41:18.532Z,7.87
2022-10-19T23:43:48.712Z,7.89
2022-10-19T23:46:16.776Z,7.89
2022-10-19T23:48:44.960Z,7.89
2022-10-19T23:51:14.579Z,7.83
2022-10-19T23:53:45.486Z,7.79
2022-10-19T23:56:16.114Z,7.76
2022-10-19T23:58:44.859Z,7.65
